sensor_id;sensor_type;location;lat;lon;timestamp;pressure;altitude;pressure_sealevel;temperature;humidity
75072;BME280;63651;55.728;38.022;2023-09-19T00:02:33;100092.16;;;16.81;nan
75072;BME280;63651;55.728;38.022;2023-09-19T00:07:34;100095.97;;;16.80;nan
75072;BME280;63651;55.728;38.022;2023-09-19T00:12:43;100098.47;;;16.81;nan
75072;BME280;63651;55.728;38.022;2023-09-19T00:17:44;100104.44;;;16.78;nan
75072;BME280;63651;55.728;38.022;2023-09-19T00:22:45;100103.44;;;16.73;nan
75072;BME280;63651;55.728;38.022;2023-09-19T00:27:47;100102.00;;;16.70;nan
75072;BME280;63651;55.728;38.022;2023-09-19T00:32:51;100099.78;;;16.79;nan
75072;BME280;63651;55.728;38.022;2023-09-19T00:37:55;100096.91;;;16.74;nan
75072;BME280;63651;55.728;38.022;2023-09-19T00:42:57;100104.63;;;16.65;nan
75072;BME280;63651;55.728;38.022;2023-09-19T00:48:02;100090.25;;;16.63;nan
75072;BME280;63651;55.728;38.022;2023-09-19T00:53:04;100099.97;;;16.66;nan
75072;BME280;63651;55.728;38.022;2023-09-19T00:58:09;100098.13;;;16.59;nan
75072;BME280;63651;55.728;38.022;2023-09-19T01:03:11;100102.75;;;16.59;nan
75072;BME280;63651;55.728;38.022;2023-09-19T01:08:14;100109.09;;;16.59;nan
75072;BME280;63651;55.728;38.022;2023-09-19T01:14:18;100095.00;;;16.56;nan
75072;BME280;63651;55.728;38.022;2023-09-19T01:30:22;100100.25;;;16.57;nan
75072;BME280;63651;55.728;38.022;2023-09-19T01:35:25;100099.41;;;16.57;nan
75072;BME280;63651;55.728;38.022;2023-09-19T01:40:26;100090.81;;;16.53;nan
75072;BME280;63651;55.728;38.022;2023-09-19T01:45:36;100094.75;;;16.57;nan
75072;BME280;63651;55.728;38.022;2023-09-19T01:55:50;100076.16;;;16.59;nan
75072;BME280;63651;55.728;38.022;2023-09-19T02:00:53;100078.31;;;16.57;nan
75072;BME280;63651;55.728;38.022;2023-09-19T02:05:55;100073.97;;;16.50;nan
75072;BME280;63651;55.728;38.022;2023-09-19T02:10:57;100065.28;;;16.53;nan
75072;BME280;63651;55.728;38.022;2023-09-19T02:15:59;100061.09;;;16.50;nan
75072;BME280;63651;55.728;38.022;2023-09-19T02:21:01;100066.34;;;16.52;nan
75072;BME280;63651;55.728;38.022;2023-09-19T02:26:02;100065.44;;;16.58;nan
75072;BME280;63651;55.728;38.022;2023-09-19T02:31:06;100073.16;;;16.49;nan
75072;BME280;63651;55.728;38.022;2023-09-19T02:36:08;100068.50;;;16.50;nan
75072;BME280;63651;55.728;38.022;2023-09-19T02:41:10;100064.91;;;16.49;nan
75072;BME280;63651;55.728;38.022;2023-09-19T02:46:11;100056.84;;;16.54;nan
75072;BME280;63651;55.728;38.022;2023-09-19T02:51:12;100051.34;;;16.54;nan
75072;BME280;63651;55.728;38.022;2023-09-19T02:56:14;100056.22;;;16.52;nan
75072;BME280;63651;55.728;38.022;2023-09-19T03:01:16;100050.97;;;16.51;nan
75072;BME280;63651;55.728;38.022;2023-09-19T03:06:19;100050.59;;;16.47;nan
75072;BME280;63651;55.728;38.022;2023-09-19T03:11:21;100053.94;;;16.49;nan
75072;BME280;63651;55.728;38.022;2023-09-19T03:16:23;100058.03;;;16.58;nan
75072;BME280;63651;55.728;38.022;2023-09-19T03:21:26;100065.16;;;16.48;nan
75072;BME280;63651;55.728;38.022;2023-09-19T03:26:27;100071.38;;;16.55;nan
75072;BME280;63651;55.728;38.022;2023-09-19T03:31:28;100089.97;;;16.53;nan
75072;BME280;63651;55.728;38.022;2023-09-19T03:36:30;100082.50;;;16.60;nan
75072;BME280;63651;55.728;38.022;2023-09-19T03:41:31;100067.47;;;16.62;nan
75072;BME280;63651;55.728;38.022;2023-09-19T03:46:33;100063.16;;;16.55;nan
75072;BME280;63651;55.728;38.022;2023-09-19T03:51:36;100045.84;;;16.54;nan
75072;BME280;63651;55.728;38.022;2023-09-19T03:56:38;100046.94;;;16.53;nan
75072;BME280;63651;55.728;38.022;2023-09-19T04:01:39;100057.56;;;16.61;nan
75072;BME280;63651;55.728;38.022;2023-09-19T04:06:42;100059.25;;;16.62;nan
75072;BME280;63651;55.728;38.022;2023-09-19T04:11:43;100060.78;;;16.58;nan
75072;BME280;63651;55.728;38.022;2023-09-19T04:16:44;100060.31;;;16.61;nan
75072;BME280;63651;55.728;38.022;2023-09-19T04:21:45;100053.09;;;16.67;nan
75072;BME280;63651;55.728;38.022;2023-09-19T04:26:46;100051.31;;;16.73;nan
75072;BME280;63651;55.728;38.022;2023-09-19T04:31:48;100042.63;;;16.76;nan
75072;BME280;63651;55.728;38.022;2023-09-19T04:36:49;100041.94;;;16.80;nan
75072;BME280;63651;55.728;38.022;2023-09-19T04:41:50;100034.03;;;16.72;nan
75072;BME280;63651;55.728;38.022;2023-09-19T04:46:51;100040.03;;;16.81;nan
75072;BME280;63651;55.728;38.022;2023-09-19T04:51:53;100035.59;;;16.80;nan
75072;BME280;63651;55.728;38.022;2023-09-19T04:56:56;100018.78;;;16.76;nan
75072;BME280;63651;55.728;38.022;2023-09-19T05:01:58;100040.31;;;16.91;nan
75072;BME280;63651;55.728;38.022;2023-09-19T05:06:59;100026.38;;;16.92;nan
75072;BME280;63651;55.728;38.022;2023-09-19T05:12:02;100020.16;;;16.97;nan
75072;BME280;63651;55.728;38.022;2023-09-19T05:17:03;100013.13;;;17.01;nan
75072;BME280;63651;55.728;38.022;2023-09-19T05:22:04;100019.84;;;17.17;nan
75072;BME280;63651;55.728;38.022;2023-09-19T05:27:07;100022.00;;;17.26;nan
75072;BME280;63651;55.728;38.022;2023-09-19T05:32:08;100028.81;;;17.36;nan
75072;BME280;63651;55.728;38.022;2023-09-19T05:37:10;100016.03;;;17.41;nan
75072;BME280;63651;55.728;38.022;2023-09-19T05:42:12;100022.13;;;17.43;nan
75072;BME280;63651;55.728;38.022;2023-09-19T05:47:13;100013.88;;;17.43;nan
75072;BME280;63651;55.728;38.022;2023-09-19T05:52:14;100005.63;;;17.55;nan
75072;BME280;63651;55.728;38.022;2023-09-19T05:57:15;100009.59;;;17.71;nan
75072;BME280;63651;55.728;38.022;2023-09-19T06:02:17;100010.53;;;17.88;nan
75072;BME280;63651;55.728;38.022;2023-09-19T06:07:20;100013.47;;;18.10;nan
75072;BME280;63651;55.728;38.022;2023-09-19T06:12:22;100020.38;;;18.24;nan
75072;BME280;63651;55.728;38.022;2023-09-19T06:17:24;100015.69;;;18.36;nan
75072;BME280;63651;55.728;38.022;2023-09-19T06:22:25;100018.63;;;18.46;nan
75072;BME280;63651;55.728;38.022;2023-09-19T06:27:26;100014.50;;;18.61;nan
75072;BME280;63651;55.728;38.022;2023-09-19T06:32:27;100014.38;;;18.67;nan
75072;BME280;63651;55.728;38.022;2023-09-19T06:37:29;100016.72;;;18.75;nan
75072;BME280;63651;55.728;38.022;2023-09-19T06:42:30;99999.81;;;18.83;nan
75072;BME280;63651;55.728;38.022;2023-09-19T06:47:32;99999.41;;;18.92;nan
75072;BME280;63651;55.728;38.022;2023-09-19T06:52:33;100002.00;;;18.98;nan
75072;BME280;63651;55.728;38.022;2023-09-19T06:57:34;100000.50;;;19.07;nan
75072;BME280;63651;55.728;38.022;2023-09-19T07:02:35;99999.50;;;19.13;nan
75072;BME280;63651;55.728;38.022;2023-09-19T07:07:38;99998.66;;;19.13;nan
75072;BME280;63651;55.728;38.022;2023-09-19T07:12:40;99993.66;;;19.10;nan
75072;BME280;63651;55.728;38.022;2023-09-19T07:17:42;99992.91;;;19.14;nan
75072;BME280;63651;55.728;38.022;2023-09-19T07:22:44;99995.22;;;19.23;nan
75072;BME280;63651;55.728;38.022;2023-09-19T07:27:45;99980.13;;;19.25;nan
75072;BME280;63651;55.728;38.022;2023-09-19T07:32:47;99984.03;;;19.29;nan
75072;BME280;63651;55.728;38.022;2023-09-19T07:37:49;99994.31;;;19.34;nan
75072;BME280;63651;55.728;38.022;2023-09-19T07:42:50;100000.81;;;19.44;nan
75072;BME280;63651;55.728;38.022;2023-09-19T07:47:51;99992.63;;;19.49;nan
75072;BME280;63651;55.728;38.022;2023-09-19T07:52:53;99994.50;;;19.61;nan
75072;BME280;63651;55.728;38.022;2023-09-19T07:57:54;99970.97;;;19.75;nan
75072;BME280;63651;55.728;38.022;2023-09-19T08:02:55;99963.75;;;19.91;nan
75072;BME280;63651;55.728;38.022;2023-09-19T08:07:56;99958.75;;;20.09;nan
75072;BME280;63651;55.728;38.022;2023-09-19T08:12:57;99954.63;;;20.12;nan
75072;BME280;63651;55.728;38.022;2023-09-19T08:18:00;99956.16;;;20.25;nan
75072;BME280;63651;55.728;38.022;2023-09-19T08:23:02;99941.09;;;20.37;nan
75072;BME280;63651;55.728;38.022;2023-09-19T08:28:04;99943.13;;;20.42;nan
75072;BME280;63651;55.728;38.022;2023-09-19T08:33:09;99934.06;;;20.47;nan
75072;BME280;63651;55.728;38.022;2023-09-19T08:38:11;99920.56;;;20.50;nan
75072;BME280;63651;55.728;38.022;2023-09-19T08:43:12;99918.47;;;20.62;nan
75072;BME280;63651;55.728;38.022;2023-09-19T08:59:00;99916.94;;;20.44;nan
75072;BME280;63651;55.728;38.022;2023-09-19T09:04:02;99904.63;;;20.30;nan
75072;BME280;63651;55.728;38.022;2023-09-19T09:09:04;99916.00;;;20.12;nan
75072;BME280;63651;55.728;38.022;2023-09-19T09:14:06;99907.31;;;19.98;nan
75072;BME280;63651;55.728;38.022;2023-09-19T09:19:08;99909.19;;;19.93;nan
75072;BME280;63651;55.728;38.022;2023-09-19T09:24:30;99902.56;;;19.94;nan
75072;BME280;63651;55.728;38.022;2023-09-19T09:29:48;99897.16;;;20.04;nan
75072;BME280;63651;55.728;38.022;2023-09-19T09:34:56;99889.47;;;20.06;nan
75072;BME280;63651;55.728;38.022;2023-09-19T09:40:00;99888.47;;;20.17;nan
75072;BME280;63651;55.728;38.022;2023-09-19T09:45:21;99893.47;;;20.20;nan
75072;BME280;63651;55.728;38.022;2023-09-19T09:50:35;99891.09;;;20.29;nan
75072;BME280;63651;55.728;38.022;2023-09-19T09:56:08;99893.97;;;20.39;nan
75072;BME280;63651;55.728;38.022;2023-09-19T10:01:10;99882.72;;;20.45;nan
75072;BME280;63651;55.728;38.022;2023-09-19T10:06:17;99858.72;;;20.46;nan
75072;BME280;63651;55.728;38.022;2023-09-19T10:11:32;99871.78;;;20.56;nan
75072;BME280;63651;55.728;38.022;2023-09-19T10:16:34;99869.06;;;20.61;nan
75072;BME280;63651;55.728;38.022;2023-09-19T10:21:38;99863.56;;;20.66;nan
75072;BME280;63651;55.728;38.022;2023-09-19T10:26:40;99873.59;;;20.77;nan
75072;BME280;63651;55.728;38.022;2023-09-19T10:31:46;99859.06;;;20.87;nan
75072;BME280;63651;55.728;38.022;2023-09-19T10:36:51;99854.41;;;20.92;nan
75072;BME280;63651;55.728;38.022;2023-09-19T10:41:53;99843.41;;;20.97;nan
75072;BME280;63651;55.728;38.022;2023-09-19T10:46:59;99846.75;;;21.04;nan
75072;BME280;63651;55.728;38.022;2023-09-19T10:52:02;99851.78;;;21.13;nan
75072;BME280;63651;55.728;38.022;2023-09-19T10:57:09;99848.22;;;21.17;nan
75072;BME280;63651;55.728;38.022;2023-09-19T11:02:18;99837.78;;;21.24;nan
75072;BME280;63651;55.728;38.022;2023-09-19T11:07:19;99827.75;;;21.13;nan
75072;BME280;63651;55.728;38.022;2023-09-19T11:17:56;99817.50;;;21.08;nan
75072;BME280;63651;55.728;38.022;2023-09-19T11:33:31;99812.47;;;21.00;nan
75072;BME280;63651;55.728;38.022;2023-09-19T11:43:49;99808.69;;;21.12;nan
75072;BME280;63651;55.728;38.022;2023-09-19T11:48:52;99821.69;;;21.16;nan
75072;BME280;63651;55.728;38.022;2023-09-19T11:53:55;99815.13;;;21.22;nan
75072;BME280;63651;55.728;38.022;2023-09-19T11:58:57;99807.34;;;21.19;nan
75072;BME280;63651;55.728;38.022;2023-09-19T12:04:00;99798.47;;;21.17;nan
75072;BME280;63651;55.728;38.022;2023-09-19T12:09:03;99799.94;;;21.25;nan
75072;BME280;63651;55.728;38.022;2023-09-19T12:14:08;99792.47;;;21.25;nan
75072;BME280;63651;55.728;38.022;2023-09-19T12:19:20;99780.31;;;21.26;nan
75072;BME280;63651;55.728;38.022;2023-09-19T12:24:23;99785.00;;;21.26;nan
75072;BME280;63651;55.728;38.022;2023-09-19T12:29:27;99763.72;;;21.26;nan
75072;BME280;63651;55.728;38.022;2023-09-19T12:34:31;99760.97;;;21.26;nan
75072;BME280;63651;55.728;38.022;2023-09-19T12:39:35;99762.63;;;21.27;nan
75072;BME280;63651;55.728;38.022;2023-09-19T12:44:41;99753.25;;;21.28;nan
75072;BME280;63651;55.728;38.022;2023-09-19T12:50:15;99756.84;;;21.29;nan
75072;BME280;63651;55.728;38.022;2023-09-19T12:55:30;99739.44;;;21.28;nan
75072;BME280;63651;55.728;38.022;2023-09-19T13:00:39;99739.13;;;21.25;nan
75072;BME280;63651;55.728;38.022;2023-09-19T13:05:57;99738.13;;;21.51;nan
75072;BME280;63651;55.728;38.022;2023-09-19T13:11:14;99728.44;;;21.49;nan
75072;BME280;63651;55.728;38.022;2023-09-19T13:16:16;99715.69;;;21.32;nan
75072;BME280;63651;55.728;38.022;2023-09-19T13:21:29;99714.88;;;21.47;nan
75072;BME280;63651;55.728;38.022;2023-09-19T13:26:33;99709.91;;;21.54;nan
75072;BME280;63651;55.728;38.022;2023-09-19T13:31:35;99703.81;;;21.47;nan
75072;BME280;63651;55.728;38.022;2023-09-19T13:36:39;99704.66;;;21.48;nan
75072;BME280;63651;55.728;38.022;2023-09-19T13:41:40;99700.78;;;21.54;nan
75072;BME280;63651;55.728;38.022;2023-09-19T13:46:42;99696.09;;;21.49;nan
75072;BME280;63651;55.728;38.022;2023-09-19T13:51:46;99691.94;;;21.52;nan
75072;BME280;63651;55.728;38.022;2023-09-19T13:56:48;99679.22;;;21.51;nan
75072;BME280;63651;55.728;38.022;2023-09-19T14:01:49;99675.91;;;21.44;nan
75072;BME280;63651;55.728;38.022;2023-09-19T14:06:51;99681.97;;;21.40;nan
75072;BME280;63651;55.728;38.022;2023-09-19T14:11:52;99685.03;;;21.44;nan
75072;BME280;63651;55.728;38.022;2023-09-19T14:16:54;99677.28;;;21.46;nan
75072;BME280;63651;55.728;38.022;2023-09-19T14:21:56;99684.47;;;21.47;nan
75072;BME280;63651;55.728;38.022;2023-09-19T14:26:57;99674.25;;;21.43;nan
75072;BME280;63651;55.728;38.022;2023-09-19T14:31:58;99678.41;;;21.45;nan
75072;BME280;63651;55.728;38.022;2023-09-19T14:36:59;99670.66;;;21.42;nan
75072;BME280;63651;55.728;38.022;2023-09-19T14:42:01;99674.78;;;21.39;nan
75072;BME280;63651;55.728;38.022;2023-09-19T14:47:02;99662.06;;;21.38;nan
75072;BME280;63651;55.728;38.022;2023-09-19T14:52:07;99667.03;;;21.36;nan
75072;BME280;63651;55.728;38.022;2023-09-19T14:57:09;99669.53;;;21.38;nan
75072;BME280;63651;55.728;38.022;2023-09-19T15:02:11;99662.91;;;21.39;nan
75072;BME280;63651;55.728;38.022;2023-09-19T15:07:13;99652.38;;;21.31;nan
75072;BME280;63651;55.728;38.022;2023-09-19T15:12:15;99659.84;;;21.25;nan
75072;BME280;63651;55.728;38.022;2023-09-19T15:17:17;99658.13;;;21.19;nan
75072;BME280;63651;55.728;38.022;2023-09-19T15:22:20;99651.47;;;21.10;nan
75072;BME280;63651;55.728;38.022;2023-09-19T15:27:21;99660.56;;;21.00;nan
75072;BME280;63651;55.728;38.022;2023-09-19T15:32:22;99662.22;;;21.01;nan
75072;BME280;63651;55.728;38.022;2023-09-19T15:37:23;99657.22;;;20.88;nan
75072;BME280;63651;55.728;38.022;2023-09-19T15:42:25;99651.97;;;20.87;nan
75072;BME280;63651;55.728;38.022;2023-09-19T15:47:26;99649.66;;;20.73;nan
75072;BME280;63651;55.728;38.022;2023-09-19T15:52:28;99649.63;;;20.63;nan
75072;BME280;63651;55.728;38.022;2023-09-19T15:57:29;99644.63;;;20.55;nan
75072;BME280;63651;55.728;38.022;2023-09-19T16:02:31;99645.16;;;20.52;nan
75072;BME280;63651;55.728;38.022;2023-09-19T16:07:32;99643.19;;;20.48;nan
75072;BME280;63651;55.728;38.022;2023-09-19T16:12:36;99647.63;;;20.49;nan
75072;BME280;63651;55.728;38.022;2023-09-19T16:17:38;99643.94;;;20.38;nan
75072;BME280;63651;55.728;38.022;2023-09-19T16:22:40;99651.72;;;20.41;nan
75072;BME280;63651;55.728;38.022;2023-09-19T16:27:41;99655.75;;;20.28;nan
75072;BME280;63651;55.728;38.022;2023-09-19T16:32:42;99649.66;;;20.26;nan
75072;BME280;63651;55.728;38.022;2023-09-19T16:37:44;99657.34;;;20.19;nan
75072;BME280;63651;55.728;38.022;2023-09-19T16:42:45;99657.34;;;20.19;nan
75072;BME280;63651;55.728;38.022;2023-09-19T16:47:46;99658.13;;;20.14;nan
75072;BME280;63651;55.728;38.022;2023-09-19T16:52:47;99661.13;;;20.08;nan
75072;BME280;63651;55.728;38.022;2023-09-19T16:57:49;99664.16;;;20.06;nan
75072;BME280;63651;55.728;38.022;2023-09-19T17:02:51;99670.19;;;20.03;nan
75072;BME280;63651;55.728;38.022;2023-09-19T17:07:52;99669.88;;;20.00;nan
75072;BME280;63651;55.728;38.022;2023-09-19T17:12:53;99664.34;;;19.95;nan
75072;BME280;63651;55.728;38.022;2023-09-19T17:17:56;99666.84;;;19.96;nan
75072;BME280;63651;55.728;38.022;2023-09-19T17:22:58;99663.19;;;19.91;nan
75072;BME280;63651;55.728;38.022;2023-09-19T17:27:59;99668.41;;;19.87;nan
75072;BME280;63651;55.728;38.022;2023-09-19T17:33:00;99669.50;;;19.86;nan
75072;BME280;63651;55.728;38.022;2023-09-19T17:38:01;99674.72;;;19.83;nan
75072;BME280;63651;55.728;38.022;2023-09-19T17:43:04;99662.28;;;19.80;nan
75072;BME280;63651;55.728;38.022;2023-09-19T17:48:06;99668.91;;;19.79;nan
75072;BME280;63651;55.728;38.022;2023-09-19T17:53:07;99670.00;;;19.78;nan
75072;BME280;63651;55.728;38.022;2023-09-19T17:58:09;99667.50;;;19.76;nan
75072;BME280;63651;55.728;38.022;2023-09-19T18:03:14;99665.25;;;19.73;nan
75072;BME280;63651;55.728;38.022;2023-09-19T18:08:15;99657.53;;;19.70;nan
75072;BME280;63651;55.728;38.022;2023-09-19T18:13:17;99675.72;;;19.71;nan
75072;BME280;63651;55.728;38.022;2023-09-19T18:18:18;99674.31;;;19.69;nan
75072;BME280;63651;55.728;38.022;2023-09-19T18:23:19;99666.31;;;19.67;nan
75072;BME280;63651;55.728;38.022;2023-09-19T18:28:21;99667.41;;;19.66;nan
75072;BME280;63651;55.728;38.022;2023-09-19T18:33:22;99671.53;;;19.64;nan
75072;BME280;63651;55.728;38.022;2023-09-19T18:38:23;99664.91;;;19.65;nan
75072;BME280;63651;55.728;38.022;2023-09-19T18:43:30;99667.38;;;19.61;nan
75072;BME280;63651;55.728;38.022;2023-09-19T18:48:35;99658.28;;;19.61;nan
75072;BME280;63651;55.728;38.022;2023-09-19T18:53:36;99658.28;;;19.61;nan
75072;BME280;63651;55.728;38.022;2023-09-19T18:58:38;99659.94;;;19.62;nan
75072;BME280;63651;55.728;38.022;2023-09-19T19:03:40;99651.03;;;19.55;nan
75072;BME280;63651;55.728;38.022;2023-09-19T19:08:44;99662.38;;;19.58;nan
75072;BME280;63651;55.728;38.022;2023-09-19T19:13:45;99657.97;;;19.57;nan
75072;BME280;63651;55.728;38.022;2023-09-19T19:18:49;99653.53;;;19.56;nan
75072;BME280;63651;55.728;38.022;2023-09-19T19:23:51;99649.38;;;19.54;nan
75072;BME280;63651;55.728;38.022;2023-09-19T19:28:52;99651.03;;;19.55;nan
75072;BME280;63651;55.728;38.022;2023-09-19T19:33:54;99642.94;;;19.48;nan
75072;BME280;63651;55.728;38.022;2023-09-19T19:38:58;99636.50;;;19.37;nan
75072;BME280;63651;55.728;38.022;2023-09-19T19:44:00;99634.06;;;19.41;nan
75072;BME280;63651;55.728;38.022;2023-09-19T19:49:01;99653.06;;;19.42;nan
75072;BME280;63651;55.728;38.022;2023-09-19T19:54:03;99640.09;;;19.38;nan
75072;BME280;63651;55.728;38.022;2023-09-19T19:59:05;99646.41;;;19.38;nan
75072;BME280;63651;55.728;38.022;2023-09-19T20:04:06;99647.81;;;19.41;nan
75072;BME280;63651;55.728;38.022;2023-09-19T20:09:07;99643.63;;;19.33;nan
75072;BME280;63651;55.728;38.022;2023-09-19T20:14:09;99650.28;;;19.37;nan
75072;BME280;63651;55.728;38.022;2023-09-19T20:19:12;99651.66;;;19.40;nan
75072;BME280;63651;55.728;38.022;2023-09-19T20:24:14;99658.84;;;19.41;nan
75072;BME280;63651;55.728;38.022;2023-09-19T20:29:20;99651.94;;;19.38;nan
75072;BME280;63651;55.728;38.022;2023-09-19T20:34:23;99653.84;;;19.38;nan
75072;BME280;63651;55.728;38.022;2023-09-19T20:39:24;99652.44;;;19.35;nan
75072;BME280;63651;55.728;38.022;2023-09-19T20:44:25;99645.22;;;19.29;nan
75072;BME280;63651;55.728;38.022;2023-09-19T20:49:29;99640.44;;;19.19;nan
75072;BME280;63651;55.728;38.022;2023-09-19T20:54:30;99657.06;;;19.30;nan
75072;BME280;63651;55.728;38.022;2023-09-19T20:59:32;99658.22;;;19.34;nan
75072;BME280;63651;55.728;38.022;2023-09-19T21:04:33;99652.09;;;19.27;nan
75072;BME280;63651;55.728;38.022;2023-09-19T21:09:34;99661.19;;;19.27;nan
75072;BME280;63651;55.728;38.022;2023-09-19T21:14:38;99646.00;;;19.25;nan
75072;BME280;63651;55.728;38.022;2023-09-19T21:19:39;99649.34;;;19.27;nan
75072;BME280;63651;55.728;38.022;2023-09-19T21:24:40;99651.22;;;19.21;nan
75072;BME280;63651;55.728;38.022;2023-09-19T21:29:42;99653.69;;;19.23;nan
75072;BME280;63651;55.728;38.022;2023-09-19T21:34:43;99649.53;;;19.20;nan
75072;BME280;63651;55.728;38.022;2023-09-19T21:39:44;99655.31;;;19.18;nan
75072;BME280;63651;55.728;38.022;2023-09-19T21:44:45;99650.38;;;19.21;nan
75072;BME280;63651;55.728;38.022;2023-09-19T21:49:47;99648.97;;;19.18;nan
75072;BME280;63651;55.728;38.022;2023-09-19T21:54:52;99646.47;;;19.16;nan
75072;BME280;63651;55.728;38.022;2023-09-19T21:59:54;99649.50;;;19.15;nan
75072;BME280;63651;55.728;38.022;2023-09-19T22:04:55;99645.59;;;19.11;nan
75072;BME280;63651;55.728;38.022;2023-09-19T22:09:56;99646.41;;;19.11;nan
75072;BME280;63651;55.728;38.022;2023-09-19T22:14:57;99642.56;;;19.12;nan
75072;BME280;63651;55.728;38.022;2023-09-19T22:19:58;99638.41;;;19.10;nan
75072;BME280;63651;55.728;38.022;2023-09-19T22:25:00;99637.34;;;19.11;nan
75072;BME280;63651;55.728;38.022;2023-09-19T22:30:03;99647.78;;;19.09;nan
75072;BME280;63651;55.728;38.022;2023-09-19T22:35:05;99636.19;;;19.07;nan
75072;BME280;63651;55.728;38.022;2023-09-19T22:40:09;99642.25;;;19.09;nan
75072;BME280;63651;55.728;38.022;2023-09-19T22:45:17;99641.44;;;19.08;nan
75072;BME280;63651;55.728;38.022;2023-09-19T22:50:18;99632.88;;;19.05;nan
75072;BME280;63651;55.728;38.022;2023-09-19T22:55:22;99639.47;;;19.04;nan
75072;BME280;63651;55.728;38.022;2023-09-19T23:00:33;99640.28;;;19.04;nan
75072;BME280;63651;55.728;38.022;2023-09-19T23:05:36;99641.38;;;19.03;nan
75072;BME280;63651;55.728;38.022;2023-09-19T23:10:39;99640.53;;;19.03;nan
75072;BME280;63651;55.728;38.022;2023-09-19T23:15:44;99641.38;;;19.03;nan
75072;BME280;63651;55.728;38.022;2023-09-19T23:20:46;99637.47;;;18.99;nan
75072;BME280;63651;55.728;38.022;2023-09-19T23:25:47;99631.13;;;18.99;nan
75072;BME280;63651;55.728;38.022;2023-09-19T23:30:50;99630.88;;;19.00;nan
75072;BME280;63651;55.728;38.022;2023-09-19T23:35:54;99632.22;;;18.98;nan
75072;BME280;63651;55.728;38.022;2023-09-19T23:40:56;99636.91;;;18.97;nan
75072;BME280;63651;55.728;38.022;2023-09-19T23:45:58;99634.94;;;18.93;nan
75072;BME280;63651;55.728;38.022;2023-09-19T23:50:59;99631.13;;;18.99;nan
75072;BME280;63651;55.728;38.022;2023-09-19T23:56:04;99640.75;;;18.96;nan
